Time;durP1;ratioP1;P1;durP2;ratioP2;P2;SDS_P1;SDS_P2;PMS_P1;PMS_P2;Temp;Humidity;BMP_temperature;BMP_pressure;BME280_temperature;BME280_humidity;BME280_pressure;Samples;Min_cycle;Max_cycle;Signal;HPM_P1;HPM_P2
2022/02/09 00:00:17;;;;;;;992.08;925.42;;;;;;;9.49;74.46;101883.75;688916;28;43730;-66
2022/02/09 00:00:40;;;;;;;985.55;919.13;;;;;;;9.49;74.59;101873.81;688520;28;37223;-66
2022/02/09 00:01:20;;;;;;;982.65;916.35;;;;;;;9.49;74.62;101878.34;689234;28;22326;-66
2022/02/09 00:02:00;;;;;;;1015.40;947.45;;;;;;;9.50;74.23;101872.81;683969;28;157923;-67
2022/02/09 00:02:35;;;;;;;1019.80;951.75;;;;;;;9.50;74.57;101882.78;684724;28;161381;-67
2022/02/09 00:03:08;;;;;;;1016.70;948.78;;;;;;;9.50;74.33;101874.69;685274;28;136029;-67
2022/02/09 00:03:31;;;;;;;1000.42;933.42;;;;;;;9.50;74.51;101880.06;685327;28;136714;-67
2022/02/09 00:04:00;;;;;;;1003.03;935.80;;;;;;;9.52;74.59;101886.16;687712;28;67245;-67
2022/02/09 00:04:28;;;;;;;1006.40;939.13;;;;;;;9.56;74.32;101879.47;685248;28;137900;-67
2022/02/09 00:05:10;;;;;;;1009.22;941.92;;;;;;;9.59;74.11;101881.03;685504;28;137814;-67
2022/02/09 00:05:43;;;;;;;999.55;932.60;;;;;;;9.55;74.19;101880.50;685037;28;137435;-67
2022/02/09 00:06:08;;;;;;;1006.55;939.45;;;;;;;9.56;74.18;101888.44;685236;28;137351;-67
2022/02/09 00:06:42;;;;;;;1007.08;939.97;;;;;;;9.58;74.41;101874.81;685501;28;114386;-67
2022/02/09 00:07:08;;;;;;;1013.08;945.70;;;;;;;9.54;74.59;101882.34;684570;28;160563;-67
2022/02/09 00:07:36;;;;;;;1002.88;935.90;;;;;;;9.54;74.46;101878.78;685395;28;137852;-67
2022/02/09 00:08:03;;;;;;;977.17;910.58;;;;;;;9.54;74.55;101884.16;685361;28;137928;-67
2022/02/09 00:08:24;;;;;;;1004.95;937.40;;;;;;;9.52;74.37;101880.78;685656;28;138051;-67
2022/02/09 00:08:45;;;;;;;997.38;930.17;;;;;;;9.50;74.60;101882.78;689538;28;24552;-67
2022/02/09 00:09:06;;;;;;;1016.40;948.53;;;;;;;9.50;74.67;101882.78;689149;28;23517;-67
2022/02/09 00:09:28;;;;;;;1003.55;936.00;;;;;;;9.48;74.19;101893.69;689523;28;22383;-67
2022/02/09 00:09:49;;;;;;;987.22;920.33;;;;;;;9.49;74.50;101890.00;688369;28;44336;-67
2022/02/09 00:10:10;;;;;;;988.45;921.75;;;;;;;9.51;74.43;101874.53;690066;28;22405;-67
2022/02/09 00:10:33;;;;;;;992.00;925.55;;;;;;;9.54;74.35;101887.75;689451;28;21546;-67
2022/02/09 00:10:59;;;;;;;988.10;921.75;;;;;;;9.55;74.17;101888.59;687790;28;68485;-67
2022/02/09 00:11:27;;;;;;;998.33;931.63;;;;;;;9.50;74.30;101886.31;684581;28;137752;-67
2022/02/09 00:11:52;;;;;;;980.25;914.10;;;;;;;9.52;73.99;101891.56;685524;28;138827;-67
2022/02/09 00:12:21;;;;;;;995.95;929.28;;;;;;;9.51;74.18;101885.31;685318;28;137754;-66
2022/02/09 00:12:48;;;;;;;988.70;922.30;;;;;;;9.50;74.23;101891.69;684260;28;161163;-67
2022/02/09 00:13:57;;;;;;;994.45;927.80;;;;;;;9.56;74.14;101895.66;679669;28;135976;-67
2022/02/09 00:14:25;;;;;;;993.00;926.40;;;;;;;9.56;73.91;101888.44;684822;28;161063;-67
2022/02/09 00:14:57;;;;;;;1001.03;934.25;;;;;;;9.56;73.89;101887.56;684974;28;138592;-66
2022/02/09 00:15:32;;;;;;;985.78;919.53;;;;;;;9.52;74.49;101888.88;685397;28;138117;-67
2022/02/09 00:16:02;;;;;;;990.50;924.03;;;;;;;9.52;74.33;101894.25;685337;28;137527;-66
2022/02/09 00:16:46;;;;;;;986.28;919.92;;;;;;;9.54;74.29;101890.44;684440;28;135922;-67
2022/02/09 00:17:52;;;;;;;973.70;908.33;;;;;;;9.57;73.76;101897.38;680665;28;137704;-67
2022/02/09 00:18:23;;;;;;;974.05;908.65;;;;;;;9.57;74.26;101900.06;683707;28;160817;-66
2022/02/09 00:18:52;;;;;;;989.53;923.65;;;;;;;9.61;73.82;101892.53;684329;28;159491;-67
2022/02/09 00:19:20;;;;;;;981.63;916.03;;;;;;;9.58;74.15;101899.09;684006;28;160838;-66
2022/02/09 00:19:57;;;;;;;980.08;914.47;;;;;;;9.55;74.02;101897.50;684910;28;136572;-66
2022/02/09 00:21:30;;;;;;;968.20;902.97;;;;;;;9.52;73.98;101889.72;677002;28;138533;-66
2022/02/09 00:22:09;;;;;;;978.17;912.60;;;;;;;9.56;74.37;101895.66;674915;29;157353;-66
2022/02/09 00:22:42;;;;;;;965.30;900.10;;;;;;;9.54;74.38;101905.75;673852;29;137438;-66
2022/02/09 00:27:09;;;;;;;979.63;913.83;;;;;;;9.56;74.35;101906.44;670856;29;138025;-67
2022/02/09 00:28:06;;;;;;;976.72;911.00;;;;;;;9.54;74.07;101894.97;679779;28;137747;-67
2022/02/09 00:28:52;;;;;;;996.88;930.53;;;;;;;9.53;73.82;101896.81;685139;28;137567;-67
2022/02/09 00:29:36;;;;;;;978.80;913.13;;;;;;;9.52;73.88;101899.66;684966;28;137693;-67
2022/02/09 00:30:37;;;;;;;977.45;911.97;;;;;;;9.48;74.05;101892.81;685100;28;137528;-67
2022/02/09 00:33:17;;;;;;;1011.13;943.83;;;;;;;9.46;74.53;101898.34;685630;28;136872;-67
2022/02/09 00:34:11;;;;;;;988.15;921.85;;;;;;;9.45;74.64;101910.16;685605;28;137349;-67
2022/02/09 00:34:48;;;;;;;992.22;926.20;;;;;;;9.42;74.50;101905.03;685416;28;138059;-66
2022/02/09 00:35:31;;;;;;;985.30;919.50;;;;;;;9.44;74.50;101907.59;685946;28;138366;-66
2022/02/09 00:37:03;;;;;;;978.33;912.78;;;;;;;9.40;74.86;101911.56;677957;28;138467;-66
2022/02/09 00:37:44;;;;;;;988.35;922.45;;;;;;;9.42;74.45;101904.19;683217;28;138484;-66
2022/02/09 00:39:08;;;;;;;970.03;904.72;;;;;;;9.37;74.76;101907.28;682952;28;135996;-66
2022/02/09 00:39:46;;;;;;;982.22;916.63;;;;;;;9.40;74.75;101903.47;682014;28;160216;-67
2022/02/09 00:40:44;;;;;;;971.95;906.72;;;;;;;9.40;75.01;101914.25;685557;28;135961;-66
2022/02/09 00:42:06;;;;;;;979.35;913.78;;;;;;;9.38;75.18;101899.06;672878;29;179027;-66
2022/02/09 00:43:02;;;;;;;985.58;919.72;;;;;;;9.40;75.07;101900.78;684936;28;136358;-66
2022/02/09 00:43:45;;;;;;;993.83;927.72;;;;;;;9.41;75.08;101907.88;685864;28;137726;-67
2022/02/09 00:44:24;;;;;;;990.50;924.50;;;;;;;9.44;74.55;101905.75;685446;28;137837;-67
2022/02/09 00:45:08;;;;;;;981.53;915.85;;;;;;;9.46;74.34;101902.91;685930;28;137442;-67
2022/02/09 00:59:21;;;;;;;1023.53;955.72;;;;;;;9.44;74.64;101907.59;685689;28;137500;-67
2022/02/09 01:03:06;;;;;;;1022.40;954.58;;;;;;;9.48;74.89;101914.41;675134;29;137587;-66
2022/02/09 01:32:52;;;;;;;1021.47;953.78;;;;;;;9.52;74.78;101915.84;685704;28;137632;-66
2022/02/09 01:33:13;;;;;;;1004.50;937.50;;;;;;;9.51;75.12;101914.13;685203;28;137704;-66
2022/02/09 01:38:34;;;;;;;1012.25;944.95;;;;;;;9.51;75.34;101924.91;683002;28;129075;-67
2022/02/09 01:39:04;;;;;;;1014.92;947.50;;;;;;;9.50;75.26;101929.47;681473;28;96630;-66
2022/02/09 01:39:40;;;;;;;1011.53;944.33;;;;;;;9.47;75.10;101926.19;680245;28;134913;-66
2022/02/09 01:40:14;;;;;;;1025.60;957.65;;;;;;;9.48;75.08;101927.88;681006;28;137392;-67
2022/02/09 01:41:18;;;;;;;1015.58;948.17;;;;;;;9.49;75.44;101926.91;681677;28;137547;-67
2022/02/09 01:51:12;;;;;;;1024.30;956.38;;;;;;;9.47;75.59;101935.13;676647;29;160672;-66
2022/02/09 01:55:38;;;;;;;1039.78;970.88;;;;;;;9.46;75.67;101924.50;679603;28;137820;-66
2022/02/09 01:56:00;;;;;;;1045.30;976.20;;;;;;;9.45;75.64;101931.72;685236;28;21547;-66
2022/02/09 01:56:22;;;;;;;1046.07;976.95;;;;;;;9.45;76.08;101925.47;687025;28;69424;-67
2022/02/09 01:56:44;;;;;;;1054.10;984.60;;;;;;;9.44;75.84;101923.78;688711;28;44401;-66
2022/02/09 01:57:08;;;;;;;1056.18;986.53;;;;;;;9.44;75.86;101929.19;689417;28;22559;-67
2022/02/09 01:57:29;;;;;;;1055.40;985.80;;;;;;;9.45;75.44;101931.72;686380;28;114968;-66
2022/02/09 01:57:51;;;;;;;1045.88;976.78;;;;;;;9.45;75.46;101929.03;689382;28;23461;-67
2022/02/09 01:58:12;;;;;;;1046.57;977.47;;;;;;;9.47;75.74;101928.91;688660;28;45231;-67
2022/02/09 01:58:33;;;;;;;1046.57;977.38;;;;;;;9.45;75.72;101926.34;689418;28;23438;-66
2022/02/09 01:58:55;;;;;;;1045.13;976.08;;;;;;;9.44;75.69;101932.72;689817;28;21528;-66
2022/02/09 01:59:17;;;;;;;1047.65;978.50;;;;;;;9.46;75.64;101927.19;688026;28;45251;-66
2022/02/09 01:59:39;;;;;;;1039.50;970.63;;;;;;;9.46;75.46;101928.03;688398;28;45264;-66
2022/02/09 02:00:00;;;;;;;1047.55;978.45;;;;;;;9.46;75.46;101927.19;689506;28;23394;-66
2022/02/09 02:00:21;;;;;;;1055.00;985.50;;;;;;;9.46;75.38;101925.31;689319;28;23461;-66
2022/02/09 02:00:53;;;;;;;1050.13;980.88;;;;;;;9.46;75.46;101925.31;685330;28;135973;-66
2022/02/09 02:01:14;;;;;;;1048.15;978.95;;;;;;;9.48;75.67;101925.19;688682;28;21082;-67
2022/02/09 02:01:35;;;;;;;1054.22;984.72;;;;;;;9.49;75.58;101927.75;689305;28;21538;-66
2022/02/09 02:01:57;;;;;;;1046.78;977.60;;;;;;;9.48;75.21;101919.78;689354;28;21517;-67
2022/02/09 02:02:19;;;;;;;1044.35;975.25;;;;;;;9.47;75.52;101918.94;689746;28;21530;-67
2022/02/09 02:02:41;;;;;;;1047.00;977.85;;;;;;;9.46;75.75;101916.41;688397;28;44941;-67
2022/02/09 02:03:02;;;;;;;1043.28;974.30;;;;;;;9.43;75.32;101919.38;687917;28;69346;-67
2022/02/09 02:03:23;;;;;;;1048.53;979.38;;;;;;;9.48;75.63;101915.28;689594;28;22420;-67
2022/02/09 02:03:45;;;;;;;1046.07;976.92;;;;;;;9.49;75.50;101914.25;689417;28;22453;-67
2022/02/09 02:04:06;;;;;;;1042.53;973.55;;;;;;;9.50;74.97;101913.28;688647;28;47653;-67
2022/02/09 02:04:27;;;;;;;1041.50;972.53;;;;;;;9.52;75.35;101915.84;690049;28;1542;-67
2022/02/09 02:04:48;;;;;;;1034.38;965.70;;;;;;;9.55;74.97;101921.78;689782;28;22158;-67
2022/02/09 02:05:10;;;;;;;1039.45;970.65;;;;;;;9.57;75.38;101918.94;689518;28;21513;-66
2022/02/09 02:05:35;;;;;;;1042.18;973.22;;;;;;;9.57;75.09;101918.94;689290;28;22279;-66
2022/02/09 02:05:56;;;;;;;1046.70;977.53;;;;;;;9.59;75.26;101916.09;685378;28;135916;-66
2022/02/09 02:06:19;;;;;;;1049.40;980.10;;;;;;;9.60;75.07;101920.53;688660;28;24508;-66
2022/02/09 02:06:42;;;;;;;1048.82;979.53;;;;;;;9.58;75.24;101915.28;688735;28;45472;-66
2022/02/09 02:07:11;;;;;;;1046.70;977.47;;;;;;;9.59;75.00;101916.94;686836;28;92473;-66
2022/02/09 02:07:42;;;;;;;1048.32;979.00;;;;;;;9.56;75.42;101912.72;684706;28;160974;-67
2022/02/09 02:08:06;;;;;;;1051.05;981.63;;;;;;;9.58;75.19;101909.88;685461;28;135174;-66
2022/02/09 02:08:29;;;;;;;1051.53;982.13;;;;;;;9.58;74.91;101909.88;686202;28;116609;-67
2022/02/09 02:08:52;;;;;;;1045.70;976.50;;;;;;;9.56;75.22;101911.84;687726;28;69627;-67
2022/02/09 02:09:14;;;;;;;1045.05;975.85;;;;;;;9.55;75.33;101910.16;687500;28;69441;-66
2022/02/09 02:09:37;;;;;;;1052.90;983.50;;;;;;;9.54;75.08;101901.22;688795;28;44349;-66
2022/02/09 02:10:05;;;;;;;1053.57;984.08;;;;;;;9.58;75.17;101899.09;687834;28;69380;-67
2022/02/09 02:10:33;;;;;;;1043.80;974.78;;;;;;;9.59;74.95;101911.56;685343;28;137953;-67
2022/02/09 02:11:03;;;;;;;1051.55;982.15;;;;;;;9.60;75.55;101910.56;685668;28;135208;-66
2022/02/09 02:11:30;;;;;;;1050.55;981.10;;;;;;;9.62;75.37;101910.44;685681;28;117553;-66
2022/02/09 02:11:56;;;;;;;1049.32;980.00;;;;;;;9.63;75.30;101909.44;685474;28;137577;-67
2022/02/09 02:12:20;;;;;;;1056.60;987.05;;;;;;;9.63;74.78;101901.34;685705;28;137673;-66
2022/02/09 02:12:57;;;;;;;1057.60;987.97;;;;;;;9.65;75.04;101907.44;687144;28;92607;-67
2022/02/09 02:13:49;;;;;;;1055.32;985.80;;;;;;;9.61;75.29;101920.38;685032;28;160634;-66
2022/02/09 02:14:20;;;;;;;1063.43;993.42;;;;;;;9.61;75.16;101906.91;685284;28;137404;-67
2022/02/09 02:14:45;;;;;;;1056.95;987.25;;;;;;;9.60;75.22;101898.94;685602;28;137150;-67
2022/02/09 02:15:32;;;;;;;1055.85;986.25;;;;;;;9.60;75.20;101904.34;687439;28;79145;-67
2022/02/09 02:16:16;;;;;;;1050.00;980.70;;;;;;;9.59;75.54;101908.84;685622;28;137997;-66
2022/02/09 02:16:41;;;;;;;1055.53;985.97;;;;;;;9.59;75.28;101897.22;684065;28;157446;-66
2022/02/09 02:17:09;;;;;;;1051.65;982.25;;;;;;;9.62;75.39;101888.84;686653;28;92989;-66
2022/02/09 02:17:38;;;;;;;1051.75;982.33;;;;;;;9.63;75.18;101904.06;685495;28;137910;-67
2022/02/09 02:18:00;;;;;;;1072.72;999.90;;;;;;;9.62;74.92;101899.66;685386;28;135870;-66
2022/02/09 02:18:23;;;;;;;1072.13;999.90;;;;;;;9.63;75.19;101891.41;688026;28;69143;-66
2022/02/09 02:18:49;;;;;;;1056.70;987.00;;;;;;;9.64;74.71;101892.25;688771;28;44386;-66
2022/02/09 02:19:24;;;;;;;1054.30;984.63;;;;;;;9.67;75.05;101897.38;685491;28;137690;-67
2022/02/09 02:19:49;;;;;;;1053.43;984.03;;;;;;;9.69;74.92;101893.53;685823;28;137835;-66
2022/02/09 02:20:23;;;;;;;1050.05;980.65;;;;;;;9.70;74.65;101897.94;686975;28;92406;-67
2022/02/09 02:20:55;;;;;;;1051.38;982.00;;;;;;;9.67;74.69;101898.22;684197;28;135907;-66
2022/02/09 02:21:32;;;;;;;1046.90;977.70;;;;;;;9.65;74.68;101893.97;682324;28;160596;-66
2022/02/09 02:22:03;;;;;;;1046.28;977.17;;;;;;;9.65;75.15;101893.97;684434;28;137418;-67
2022/02/09 02:22:38;;;;;;;1046.65;977.50;;;;;;;9.67;74.95;101891.97;684116;28;137137;-66
2022/02/09 02:23:24;;;;;;;1048.30;979.03;;;;;;;9.65;74.59;101894.81;685529;28;137404;-66
2022/02/09 02:24:08;;;;;;;1055.53;986.03;;;;;;;9.64;74.91;101887.72;685633;28;137720;-66
2022/02/09 02:25:38;;;;;;;1052.22;982.88;;;;;;;9.64;74.89;101901.22;685484;28;138646;-66
2022/02/09 02:26:11;;;;;;;1047.35;978.15;;;;;;;9.61;74.87;101893.41;685389;28;138753;-67
2022/02/09 02:26:47;;;;;;;1054.07;984.53;;;;;;;9.62;74.81;101902.34;684572;28;138915;-66
2022/02/09 02:28:35;;;;;;;1045.60;976.30;;;;;;;9.68;74.59;101899.06;678480;28;137070;-67
2022/02/09 02:29:15;;;;;;;1057.22;987.45;;;;;;;9.67;74.82;101898.22;687765;28;60892;-66
2022/02/09 02:29:57;;;;;;;1060.68;990.67;;;;;;;9.65;74.53;101893.97;685457;28;135990;-66
2022/02/09 02:31:28;;;;;;;1056.35;986.65;;;;;;;9.56;75.28;101893.84;686792;28;99314;-66
2022/02/09 02:32:47;;;;;;;1057.97;988.25;;;;;;;9.59;75.09;101891.84;685476;28;137765;-67
2022/02/09 02:34:54;;;;;;;1054.63;985.08;;;;;;;9.62;74.75;101903.19;679579;28;138887;-66
2022/02/09 02:35:57;;;;;;;1049.15;979.83;;;;;;;9.62;74.75;101899.66;681231;28;135728;-66
2022/02/09 02:37:59;;;;;;;1066.65;996.53;;;;;;;9.59;74.85;101902.63;679791;28;135810;-66
2022/02/09 02:39:38;;;;;;;1061.63;991.78;;;;;;;9.56;74.97;101901.06;684961;28;137768;-67
2022/02/09 02:41:27;;;;;;;1054.30;984.75;;;;;;;9.56;74.95;101898.34;685559;28;137480;-65
2022/02/09 02:43:40;;;;;;;1036.10;967.50;;;;;;;9.58;75.33;101904.47;678968;28;160590;-66
2022/02/09 02:47:09;;;;;;;1055.43;985.88;;;;;;;9.52;75.42;101900.50;668460;29;157241;-66
2022/02/09 02:47:48;;;;;;;1052.63;983.22;;;;;;;9.52;75.44;101905.03;675997;29;161009;-66
2022/02/09 02:57:36;;;;;;;1046.35;977.30;;;;;;;9.57;75.51;101886.59;683757;28;90987;-66
2022/02/09 02:58:26;;;;;;;1019.13;951.33;;;;;;;9.56;75.30;101890.25;679533;28;138314;-65
2022/02/09 02:59:16;;;;;;;1022.25;954.45;;;;;;;9.56;75.58;101885.75;679721;28;136038;-65
2022/02/09 03:07:48;;;;;;;1044.00;975.00;;;;;;;9.60;75.45;101894.38;681822;28;98772;-65
2022/02/09 03:08:58;;;;;;;1041.30;972.47;;;;;;;9.57;75.61;101886.59;679767;28;137580;-65
2022/02/09 03:09:46;;;;;;;1043.38;974.53;;;;;;;9.57;75.33;101886.59;679917;28;137643;-66
2022/02/09 03:11:02;;;;;;;1049.25;979.97;;;;;;;9.56;75.36;101884.88;681772;28;159687;-66
2022/02/09 03:11:51;;;;;;;1039.43;970.67;;;;;;;9.57;75.44;101884.72;681898;28;135349;-66
2022/02/09 03:12:17;;;;;;;1038.65;970.05;;;;;;;9.57;75.27;101883.88;685027;28;136115;-65
2022/02/09 03:12:42;;;;;;;1032.95;964.53;;;;;;;9.58;75.03;101877.50;685144;28;138481;-66
2022/02/09 03:13:07;;;;;;;1036.22;967.65;;;;;;;9.56;75.15;101876.78;686298;28;114935;-66
2022/02/09 03:13:31;;;;;;;1034.65;966.10;;;;;;;9.55;75.40;101883.19;687010;28;91997;-65
2022/02/09 03:13:57;;;;;;;1037.78;969.08;;;;;;;9.55;75.22;101880.50;685946;28;113529;-66
2022/02/09 03:14:25;;;;;;;1028.18;959.97;;;;;;;9.55;75.68;101883.19;685768;28;136156;-66
2022/02/09 03:14:53;;;;;;;1020.75;953.03;;;;;;;9.54;75.18;101876.94;685442;28;138070;-65
2022/02/09 03:15:29;;;;;;;1012.83;945.47;;;;;;;9.55;75.65;101885.88;685249;28;138775;-66
2022/02/09 03:15:57;;;;;;;1018.08;950.55;;;;;;;9.55;75.38;101880.50;685381;28;129439;-66
2022/02/09 03:16:28;;;;;;;1018.17;950.65;;;;;;;9.59;75.40;101881.03;684661;28;138580;-66
2022/02/09 03:16:55;;;;;;;1047.75;978.58;;;;;;;9.56;75.38;101879.47;685322;28;135831;-66
2022/02/09 03:17:22;;;;;;;1064.90;994.83;;;;;;;9.55;75.33;101881.31;685647;28;136022;-66
2022/02/09 03:17:51;;;;;;;1027.50;959.40;;;;;;;9.59;74.99;101895.38;685515;28;137974;-65
2022/02/09 03:18:37;;;;;;;1023.38;955.47;;;;;;;9.59;75.36;101884.59;685834;28;137760;-66
2022/02/09 03:19:53;;;;;;;1013.35;945.95;;;;;;;9.61;74.99;101887.13;682682;28;137593;-66
2022/02/09 03:20:22;;;;;;;1014.25;946.78;;;;;;;9.67;75.17;101890.16;685647;28;136327;-66
2022/02/09 03:20:47;;;;;;;1009.63;942.42;;;;;;;9.68;74.75;101888.28;685476;28;138804;-66
2022/02/09 03:21:20;;;;;;;1024.50;956.70;;;;;;;9.64;74.81;101895.81;684406;28;135514;-66
2022/02/09 03:21:48;;;;;;;1022.53;954.67;;;;;;;9.64;74.83;101885.03;683218;28;157230;-66
2022/02/09 03:22:18;;;;;;;1027.07;959.10;;;;;;;9.62;75.36;101891.56;684483;28;137864;-67
2022/02/09 03:22:51;;;;;;;1014.38;946.90;;;;;;;9.64;74.90;101892.25;684596;28;136216;-66
2022/02/09 03:23:28;;;;;;;1019.63;951.97;;;;;;;9.63;74.92;101886.00;685596;28;138727;-66
2022/02/09 03:23:53;;;;;;;1057.47;987.67;;;;;;;9.59;75.31;101889.97;685778;28;136036;-66
2022/02/09 03:24:18;;;;;;;1064.30;994.30;;;;;;;9.58;75.47;101885.59;686773;28;115100;-65
2022/02/09 03:24:59;;;;;;;1038.13;969.55;;;;;;;9.57;75.21;101894.69;685813;28;138108;-65
2022/02/09 03:25:43;;;;;;;1015.60;948.05;;;;;;;9.54;75.20;101882.34;685799;28;138422;-67
2022/02/09 03:26:26;;;;;;;1021.15;953.45;;;;;;;9.56;75.18;101883.03;685580;28;138984;-67
2022/02/09 03:27:04;;;;;;;1021.03;953.38;;;;;;;9.58;75.27;101899.09;684291;28;157747;-67
2022/02/09 03:27:49;;;;;;;1022.03;954.40;;;;;;;9.59;75.29;101886.44;685683;28;136858;-67
2022/02/09 03:31:24;;;;;;;1031.00;962.88;;;;;;;9.66;75.20;101880.34;677264;28;138511;-67
2022/02/09 03:42:44;;;;;;;1031.97;963.75;;;;;;;9.67;74.71;101891.97;685083;28;137748;-66
2022/02/09 03:43:25;;;;;;;1034.13;965.65;;;;;;;9.70;74.56;101884.47;685534;28;137239;-66
2022/02/09 03:46:12;;;;;;;1078.93;999.90;;;;;;;9.70;74.52;101876.38;680233;28;83670;-67
2022/02/09 03:47:02;;;;;;;1071.38;999.90;;;;;;;9.73;74.50;101877.91;684114;28;157491;-66
2022/02/09 03:47:34;;;;;;;1075.95;999.90;;;;;;;9.70;74.43;101884.47;685415;28;137786;-66
2022/02/09 03:48:10;;;;;;;1078.03;999.90;;;;;;;9.69;74.95;101882.75;685062;28;137843;-67
2022/02/09 03:48:48;;;;;;;1062.72;992.70;;;;;;;9.68;74.98;101885.59;685230;28;135772;-66
2022/02/09 03:49:26;;;;;;;1037.60;969.00;;;;;;;9.70;74.67;101876.38;685320;28;137349;-67
2022/02/09 03:50:22;;;;;;;1046.50;977.53;;;;;;;9.74;74.54;101887.72;685474;28;138431;-64
2022/02/09 03:50:56;;;;;;;1078.07;999.90;;;;;;;9.73;74.62;101884.19;685423;28;137083;-66
2022/02/09 03:51:42;;;;;;;1056.25;986.60;;;;;;;9.73;74.60;101884.19;684778;28;137982;-67
2022/02/09 03:52:11;;;;;;;1041.95;973.17;;;;;;;9.73;74.70;101886.88;685498;28;138003;-66
2022/02/09 03:52:52;;;;;;;1048.15;979.20;;;;;;;9.74;74.39;101893.94;685387;28;138318;-66
2022/02/09 03:54:03;;;;;;;1035.18;966.80;;;;;;;9.70;74.81;101884.47;681717;28;137722;-67
2022/02/09 03:54:32;;;;;;;1032.88;964.58;;;;;;;9.72;74.58;101889.72;685525;28;136141;-66
2022/02/09 03:54:57;;;;;;;1029.15;960.97;;;;;;;9.76;74.42;101895.66;685526;28;137650;-67
2022/02/09 03:55:23;;;;;;;1037.32;968.67;;;;;;;9.76;74.67;101882.19;686012;28;114871;-67
2022/02/09 03:56:00;;;;;;;1062.40;992.45;;;;;;;9.72;74.61;101887.03;686373;28;114918;-67
2022/02/09 03:56:29;;;;;;;1063.85;993.88;;;;;;;9.74;74.67;101895.81;684736;28;138242;-66
2022/02/09 03:56:58;;;;;;;1036.40;967.90;;;;;;;9.74;74.99;101880.47;685351;28;137915;-66
2022/02/09 03:57:24;;;;;;;1032.55;964.10;;;;;;;9.74;74.88;101891.25;685529;28;135896;-66
2022/02/09 03:57:46;;;;;;;1046.10;977.13;;;;;;;9.74;74.52;101876.91;686297;28;114801;-67
2022/02/09 03:58:08;;;;;;;1057.82;988.03;;;;;;;9.73;74.62;101886.00;688337;28;46419;-67
2022/02/09 03:58:29;;;;;;;1034.43;965.97;;;;;;;9.73;74.64;101875.22;687872;28;67437;-66
2022/02/09 03:58:50;;;;;;;1032.22;963.92;;;;;;;9.74;75.03;101882.31;689527;28;22376;-66
2022/02/09 03:59:13;;;;;;;1040.60;971.80;;;;;;;9.71;75.11;101880.75;689306;28;21521;-66
2022/02/09 03:59:35;;;;;;;1063.10;993.10;;;;;;;9.71;74.69;101886.16;687505;28;67430;-66
2022/02/09 04:00:08;;;;;;;1082.38;999.90;;;;;;;9.71;75.15;101879.91;686699;28;98507;-67
2022/02/09 04:00:34;;;;;;;1041.00;972.35;;;;;;;9.70;74.97;101887.16;688059;28;45117;-66
2022/02/09 04:00:55;;;;;;;1044.63;975.92;;;;;;;9.71;74.89;101877.22;684507;28;159302;-66
2022/02/09 04:01:18;;;;;;;1046.50;977.65;;;;;;;9.70;74.74;101879.06;687260;28;23568;-66
2022/02/09 04:01:41;;;;;;;1047.18;978.08;;;;;;;9.72;74.76;101878.91;686602;28;44273;-67
2022/02/09 04:02:03;;;;;;;1086.07;999.90;;;;;;;9.75;74.98;101878.63;686410;28;70395;-64
2022/02/09 04:02:26;;;;;;;1104.47;999.90;;;;;;;9.72;74.52;101879.75;687675;28;69430;-67
2022/02/09 04:02:48;;;;;;;1045.95;977.05;;;;;;;9.74;74.97;101887.72;687638;28;67497;-66
2022/02/09 04:03:13;;;;;;;1044.57;975.88;;;;;;;9.72;74.73;101885.16;687431;28;46759;-66
2022/02/09 04:03:34;;;;;;;1043.03;974.33;;;;;;;9.71;75.15;101888.84;685784;28;113511;-67
2022/02/09 04:03:55;;;;;;;1039.97;971.33;;;;;;;9.70;74.84;101884.47;689009;28;22378;-66
2022/02/09 04:04:17;;;;;;;1037.25;968.75;;;;;;;9.69;75.19;101893.53;689117;28;22412;-66
2022/02/09 04:04:38;;;;;;;1038.50;970.00;;;;;;;9.70;75.08;101881.75;688179;28;46398;-67
2022/02/09 04:04:59;;;;;;;1035.50;966.97;;;;;;;9.71;74.65;101882.59;689475;28;22400;-66
2022/02/09 04:05:21;;;;;;;1061.57;991.70;;;;;;;9.70;74.79;101886.28;690019;28;21546;-66
2022/02/09 04:05:44;;;;;;;1059.72;989.90;;;;;;;9.71;74.66;101891.53;689296;28;46358;-66
2022/02/09 04:06:05;;;;;;;1071.15;999.45;;;;;;;9.71;74.53;101882.59;688323;28;69289;-66
2022/02/09 04:06:32;;;;;;;1075.78;999.90;;;;;;;9.74;74.84;101885.84;689296;28;21333;-67
2022/02/09 04:06:53;;;;;;;1067.95;997.75;;;;;;;9.71;74.57;101882.59;685462;28;138335;-66
2022/02/09 04:07:15;;;;;;;1054.55;985.15;;;;;;;9.70;74.62;101887.16;689927;28;23553;-66
2022/02/09 04:07:36;;;;;;;1061.85;991.97;;;;;;;9.71;74.70;101883.44;688736;28;46320;-67
2022/02/09 04:07:59;;;;;;;1064.30;994.05;;;;;;;9.71;74.65;101885.31;689046;28;22403;-66
2022/02/09 04:08:27;;;;;;;1057.32;987.72;;;;;;;9.72;74.61;101887.03;687882;28;69414;-66
2022/02/09 04:08:53;;;;;;;1055.03;985.63;;;;;;;9.72;74.96;101885.16;685044;28;161194;-66
2022/02/09 04:09:18;;;;;;;1048.97;979.85;;;;;;;9.74;74.48;101885.03;685598;28;137786;-66
2022/02/09 04:09:45;;;;;;;1097.47;999.90;;;;;;;9.72;74.83;101887.84;686523;28;116299;-67
2022/02/09 04:10:10;;;;;;;1087.65;999.90;;;;;;;9.72;74.84;101884.31;686152;28;136311;-66
2022/02/09 04:10:37;;;;;;;1057.05;987.47;;;;;;;9.73;74.80;101886.88;686235;28;115142;-66
2022/02/09 04:11:07;;;;;;;1050.55;981.33;;;;;;;9.74;74.71;101882.31;685674;28;138056;-66
2022/02/09 04:11:33;;;;;;;1042.15;973.35;;;;;;;9.75;74.63;101875.94;684943;28;135931;-67
2022/02/09 04:12:03;;;;;;;1044.30;975.40;;;;;;;9.74;74.60;101885.03;685760;28;138478;-66
2022/02/09 04:12:33;;;;;;;1039.97;971.40;;;;;;;9.79;74.36;101887.28;687401;28;99190;-66
2022/02/09 04:13:05;;;;;;;1082.22;999.90;;;;;;;9.81;74.46;101877.19;686150;28;137276;-64
2022/02/09 04:13:34;;;;;;;1109.18;999.90;;;;;;;9.80;74.41;101876.34;685808;28;137766;-64
2022/02/09 04:14:06;;;;;;;1111.68;999.90;;;;;;;9.80;74.23;101876.34;685553;28;137677;-66
2022/02/09 04:14:35;;;;;;;1053.13;983.83;;;;;;;9.80;74.25;101872.81;685890;28;135953;-66
2022/02/09 04:15:03;;;;;;;1043.97;975.13;;;;;;;9.81;74.41;101879.88;685436;28;138479;-67
2022/02/09 04:15:40;;;;;;;1045.00;976.10;;;;;;;9.77;74.26;101873.09;685969;28;137564;-66
2022/02/09 04:16:08;;;;;;;1043.70;974.90;;;;;;;9.76;74.37;101880.31;685462;28;137723;-66
2022/02/09 04:16:42;;;;;;;1061.63;991.78;;;;;;;9.75;74.74;101878.63;684984;28;138859;-66
2022/02/09 04:17:17;;;;;;;1081.32;999.90;;;;;;;9.74;74.42;101883.16;685611;28;137370;-66
2022/02/09 04:17:45;;;;;;;1080.35;999.90;;;;;;;9.71;74.89;101869.13;685333;28;136969;-66
2022/02/09 04:18:17;;;;;;;1071.20;999.58;;;;;;;9.70;74.92;101870.97;685107;28;161779;-66
2022/02/09 04:18:50;;;;;;;1029.78;961.63;;;;;;;9.71;74.67;101869.13;685174;28;158900;-66
2022/02/09 04:19:23;;;;;;;1037.47;968.97;;;;;;;9.69;74.88;101874.66;685469;28;137269;-66
2022/02/09 04:20:03;;;;;;;1029.93;961.80;;;;;;;9.71;74.44;101875.34;685854;28;135289;-66
2022/02/09 04:22:21;;;;;;;1027.97;960.00;;;;;;;9.74;74.64;101872.38;685912;28;138708;-67
2022/02/09 04:36:29;;;;;;;970.97;905.15;;;;;;;9.76;74.26;101866.00;684970;28;138034;-66
2022/02/09 04:36:57;;;;;;;966.67;900.92;;;;;;;9.76;74.49;101868.69;684836;28;136013;-66
2022/02/09 04:37:25;;;;;;;957.28;891.80;;;;;;;9.72;74.75;101865.44;685218;28;159175;-66
2022/02/09 04:37:59;;;;;;;974.83;908.75;;;;;;;9.74;74.65;101866.97;685822;28;138032;-66